Time;durP1;ratioP1;P1;durP2;ratioP2;P2;SDS_P1;SDS_P2;PMS_P1;PMS_P2;Temp;Humidity;BMP_temperature;BMP_pressure;BME280_temperature;BME280_humidity;BME280_pressure;Samples;Min_cycle;Max_cycle;Signal;HPM_P1;HPM_P2
2023/04/14 00:00:01;;;;;;;1.10;1.10;;;18.30;65.20;;;;;;5064619;28;43820;-71
2023/04/14 00:02:39;;;;;;;1.30;1.30;;;18.30;65.20;;;;;;5063187;28;43454;-71
2023/04/14 00:05:09;;;;;;;1.20;1.20;;;18.30;65.30;;;;;;5067988;28;43545;-70
2023/04/14 00:07:37;;;;;;;1.30;1.30;;;18.20;65.40;;;;;;5060192;28;43354;-70
2023/04/14 00:10:06;;;;;;;1.40;1.40;;;18.20;65.60;;;;;;5064397;28;43961;-71
2023/04/14 00:12:34;;;;;;;1.30;1.30;;;18.20;65.70;;;;;;5063779;28;44869;-71
2023/04/14 00:15:02;;;;;;;1.30;1.30;;;18.20;65.60;;;;;;5065386;28;43388;-71
2023/04/14 00:17:31;;;;;;;1.20;1.20;;;18.20;65.60;;;;;;5059978;28;43383;-71
2023/04/14 00:19:59;;;;;;;1.50;1.50;;;18.20;65.70;;;;;;5059203;28;45987;-69
2023/04/14 00:22:28;;;;;;;1.17;1.17;;;18.10;65.70;;;;;;5065172;28;43451;-70
2023/04/14 00:24:56;;;;;;;1.23;1.23;;;18.10;65.80;;;;;;5067494;28;43385;-70
2023/04/14 00:27:24;;;;;;;1.40;1.30;;;18.10;65.90;;;;;;5065455;28;43422;-70
2023/04/14 00:29:52;;;;;;;1.20;1.20;;;18.10;65.70;;;;;;5068395;28;43852;-70
2023/04/14 00:32:20;;;;;;;1.40;1.40;;;18.10;65.80;;;;;;5068087;28;43509;-70
2023/04/14 00:34:48;;;;;;;1.07;1.07;;;18.10;65.80;;;;;;5068692;28;43444;-70
2023/04/14 00:37:16;;;;;;;1.20;1.20;;;18.10;65.80;;;;;;5068693;28;43430;-69
2023/04/14 00:39:45;;;;;;;1.20;1.20;;;18.00;65.90;;;;;;5067875;28;43937;-70
2023/04/14 00:42:13;;;;;;;1.20;1.20;;;18.10;66.10;;;;;;5069597;28;43444;-70
2023/04/14 00:44:41;;;;;;;1.10;1.10;;;18.10;65.80;;;;;;5068213;28;43440;-70
2023/04/14 00:47:09;;;;;;;1.23;1.23;;;18.30;65.50;;;;;;5068528;28;43932;-71
2023/04/14 00:49:37;;;;;;;1.00;1.00;;;18.30;65.10;;;;;;5067868;28;43632;-70
2023/04/14 00:52:05;;;;;;;1.00;1.00;;;18.30;64.90;;;;;;5066359;28;44845;-70
2023/04/14 00:54:33;;;;;;;1.17;1.17;;;18.30;65.10;;;;;;5068703;28;43449;-70
2023/04/14 00:57:03;;;;;;;1.17;1.17;;;18.30;65.30;;;;;;5068350;28;43339;-70
2023/04/14 00:59:31;;;;;;;1.20;1.20;;;18.30;65.20;;;;;;5065977;28;46224;-70
2023/04/14 01:01:59;;;;;;;1.33;1.33;;;18.20;65.20;;;;;;5068158;28;43558;-69
2023/04/14 01:04:27;;;;;;;1.20;1.20;;;18.20;65.30;;;;;;5061473;28;44724;-70
2023/04/14 01:07:16;;;;;;;1.10;1.10;;;18.20;65.40;;;;;;5068036;28;43514;-69
2023/04/14 01:09:44;;;;;;;1.07;1.07;;;18.10;65.60;;;;;;5050052;28;45562;-70
2023/04/14 01:12:15;;;;;;;1.00;1.00;;;18.10;65.60;;;;;;5082976;28;45121;-70
2023/04/14 01:14:49;;;;;;;0.97;0.97;;;18.10;65.40;;;;;;5065424;28;43469;-70
2023/04/14 01:17:24;;;;;;;1.00;1.00;;;18.20;65.60;;;;;;5060247;28;43862;-70
2023/04/14 01:20:02;;;;;;;1.03;1.03;;;18.10;65.50;;;;;;5062663;28;43888;-70
2023/04/14 01:22:31;;;;;;;1.00;1.00;;;18.10;65.50;;;;;;5067746;28;43904;-70
2023/04/14 01:25:31;;;;;;;1.00;1.00;;;18.10;65.80;;;;;;5067969;28;43420;-70
2023/04/14 01:28:19;;;;;;;1.07;1.07;;;18.10;65.60;;;;;;5056887;28;43632;-71
2023/04/14 01:30:54;;;;;;;1.00;1.00;;;18.10;65.50;;;;;;5068053;28;43856;-70
2023/04/14 01:33:23;;;;;;;1.17;1.17;;;18.10;65.50;;;;;;5067281;28;43363;-70
2023/04/14 01:35:52;;;;;;;1.10;1.10;;;18.10;65.60;;;;;;5067049;28;43431;-70
2023/04/14 01:38:24;;;;;;;1.23;1.23;;;18.10;65.70;;;;;;5069962;28;43434;-70
2023/04/14 01:40:56;;;;;;;1.10;1.10;;;18.10;65.80;;;;;;5060253;28;45772;-70
2023/04/14 01:43:26;;;;;;;1.10;1.10;;;18.20;65.60;;;;;;5065758;28;43653;-70
2023/04/14 01:45:55;;;;;;;1.00;1.00;;;18.30;65.20;;;;;;5066984;28;43457;-70
2023/04/14 01:48:25;;;;;;;1.20;1.20;;;18.40;64.90;;;;;;5067760;28;43408;-70
2023/04/14 01:50:55;;;;;;;0.83;0.83;;;18.30;64.80;;;;;;5079901;27;46775;-70
2023/04/14 01:53:23;;;;;;;1.10;1.10;;;18.30;65.00;;;;;;5059123;28;43422;-70
2023/04/14 01:55:51;;;;;;;1.10;1.10;;;18.30;65.10;;;;;;5067367;28;43438;-70
2023/04/14 01:58:19;;;;;;;1.20;1.20;;;18.30;65.00;;;;;;5063889;28;43463;-70
2023/04/14 02:00:48;;;;;;;1.13;1.13;;;18.30;65.20;;;;;;5062424;28;46628;-70
2023/04/14 02:03:16;;;;;;;1.00;1.00;;;18.20;65.20;;;;;;5064926;28;44715;-71
2023/04/14 02:05:46;;;;;;;1.13;1.13;;;18.10;65.30;;;;;;5066008;28;43375;-71
2023/04/14 02:08:14;;;;;;;1.20;1.20;;;18.10;66.30;;;;;;5063407;28;43573;-71
2023/04/14 02:10:43;;;;;;;1.20;1.20;;;18.10;65.60;;;;;;5065258;28;45483;-71
2023/04/14 02:13:11;;;;;;;1.17;1.17;;;18.10;65.50;;;;;;5066089;28;43890;-70
2023/04/14 02:15:39;;;;;;;1.20;1.20;;;18.10;65.60;;;;;;5065605;28;43468;-70
2023/04/14 02:18:07;;;;;;;1.27;1.27;;;18.10;65.70;;;;;;5062026;28;43608;-71
2023/04/14 02:20:36;;;;;;;1.07;1.07;;;18.10;65.80;;;;;;5065233;28;46362;-71
2023/04/14 02:23:06;;;;;;;1.07;1.07;;;18.00;65.90;;;;;;5059678;28;44405;-71
2023/04/14 02:25:34;;;;;;;1.03;1.03;;;18.10;65.80;;;;;;5066612;28;43489;-71
2023/04/14 02:28:05;;;;;;;1.10;1.10;;;18.20;65.60;;;;;;5063071;28;43432;-71
2023/04/14 02:30:35;;;;;;;1.07;1.07;;;18.20;65.30;;;;;;5066401;28;43753;-70
2023/04/14 02:33:05;;;;;;;1.10;1.10;;;18.20;65.10;;;;;;5057661;28;44714;-70
2023/04/14 02:35:36;;;;;;;1.30;1.30;;;18.20;65.20;;;;;;5066611;28;43445;-70
2023/04/14 02:38:08;;;;;;;1.10;1.10;;;18.20;65.40;;;;;;5051945;28;43549;-70
2023/04/14 02:40:38;;;;;;;1.07;1.07;;;18.20;65.20;;;;;;5066219;28;43699;-71
2023/04/14 02:43:12;;;;;;;1.17;1.17;;;18.20;65.10;;;;;;5064424;28;44363;-71
2023/04/14 02:45:42;;;;;;;0.97;0.97;;;18.20;65.30;;;;;;5047878;28;43419;-70
2023/04/14 02:48:13;;;;;;;1.00;1.00;;;18.10;65.30;;;;;;5065128;28;43342;-70
2023/04/14 02:50:44;;;;;;;1.20;1.20;;;18.10;66.10;;;;;;5064574;28;44929;-70
2023/04/14 02:53:20;;;;;;;1.10;1.10;;;18.10;65.70;;;;;;5046690;28;43879;-70
2023/04/14 02:55:50;;;;;;;1.10;1.10;;;18.10;65.40;;;;;;5061696;28;43927;-70
2023/04/14 02:58:19;;;;;;;1.10;1.10;;;18.20;65.10;;;;;;5047153;28;43770;-70
2023/04/14 03:00:47;;;;;;;1.07;1.07;;;18.20;64.90;;;;;;5064827;28;44942;-70
2023/04/14 03:03:16;;;;;;;1.00;1.00;;;18.20;65.00;;;;;;5065705;28;43374;-70
2023/04/14 03:05:44;;;;;;;1.20;1.20;;;18.20;65.10;;;;;;5058409;28;43944;-70
2023/04/14 03:08:15;;;;;;;1.10;1.10;;;18.20;65.30;;;;;;5067311;28;43393;-71
2023/04/14 03:10:48;;;;;;;1.20;1.20;;;18.20;65.20;;;;;;5060915;28;43921;-71
2023/04/14 03:13:21;;;;;;;1.10;1.10;;;18.20;65.30;;;;;;5054733;28;44874;-70
2023/04/14 03:15:49;;;;;;;1.07;1.07;;;18.20;65.40;;;;;;5056548;28;43526;-70
2023/04/14 03:18:17;;;;;;;1.23;1.20;;;18.10;65.40;;;;;;5058117;28;43672;-71
2023/04/14 03:20:46;;;;;;;1.10;1.10;;;18.10;65.60;;;;;;5061150;28;45913;-71
2023/04/14 03:23:17;;;;;;;1.30;1.30;;;18.00;65.70;;;;;;5057152;28;43434;-70
2023/04/14 03:25:52;;;;;;;1.07;1.07;;;18.00;65.80;;;;;;5064152;28;43365;-70
2023/04/14 03:28:26;;;;;;;1.07;1.07;;;18.00;65.90;;;;;;5062327;28;43443;-70
2023/04/14 03:30:56;;;;;;;1.10;1.10;;;17.90;65.80;;;;;;5069037;28;44702;-70
2023/04/14 03:33:28;;;;;;;1.10;1.10;;;17.90;65.80;;;;;;5064160;28;44546;-70
2023/04/14 03:35:57;;;;;;;1.07;1.07;;;18.00;65.90;;;;;;5046459;28;43407;-70
2023/04/14 03:38:27;;;;;;;0.90;0.90;;;18.00;65.90;;;;;;5069283;28;44554;-70
2023/04/14 03:41:02;;;;;;;1.20;1.20;;;17.90;65.90;;;;;;5065821;28;43832;-70
2023/04/14 03:43:30;;;;;;;1.27;1.27;;;18.00;65.90;;;;;;5065506;28;43354;-71
2023/04/14 03:46:05;;;;;;;1.43;1.30;;;18.10;65.60;;;;;;5058552;28;43462;-70
2023/04/14 03:48:38;;;;;;;1.13;1.13;;;18.20;65.20;;;;;;5063967;28;43406;-70
2023/04/14 03:51:07;;;;;;;1.10;1.10;;;18.40;64.90;;;;;;5063833;28;44733;-70
2023/04/14 03:53:35;;;;;;;1.10;1.10;;;18.60;64.50;;;;;;5063736;28;44490;-71
2023/04/14 03:56:06;;;;;;;1.50;1.40;;;18.70;63.90;;;;;;5064687;28;43950;-70
2023/04/14 03:58:34;;;;;;;1.47;1.40;;;18.90;63.50;;;;;;5065342;28;43960;-70
2023/04/14 04:01:02;;;;;;;1.73;1.63;;;19.00;63.10;;;;;;5069015;28;43896;-70
2023/04/14 04:03:32;;;;;;;1.50;1.50;;;19.10;62.70;;;;;;5066750;28;45074;-71
2023/04/14 04:06:00;;;;;;;2.87;1.60;;;19.20;62.30;;;;;;5067178;28;43451;-71
2023/04/14 04:08:28;;;;;;;1.67;1.57;;;19.30;62.10;;;;;;5067928;28;43462;-70
2023/04/14 04:10:56;;;;;;;1.70;1.63;;;19.30;61.90;;;;;;5068910;28;43845;-70
2023/04/14 04:13:26;;;;;;;1.77;1.50;;;19.30;61.90;;;;;;5067585;28;44993;-70
2023/04/14 04:15:54;;;;;;;1.93;1.60;;;19.20;62.20;;;;;;5067074;28;43924;-70
2023/04/14 04:18:22;;;;;;;1.77;1.67;;;19.10;62.50;;;;;;5064002;28;43444;-71
2023/04/14 04:20:50;;;;;;;2.63;1.70;;;18.90;63.10;;;;;;5068194;28;43936;-71
2023/04/14 04:23:20;;;;;;;1.57;1.57;;;18.80;63.40;;;;;;5067169;28;44451;-71
2023/04/14 04:25:48;;;;;;;1.63;1.60;;;18.70;63.60;;;;;;5066088;28;43493;-71
2023/04/14 04:28:26;;;;;;;1.97;1.87;;;18.60;63.60;;;;;;5067492;28;43537;-70
2023/04/14 04:30:55;;;;;;;1.77;1.63;;;18.50;63.80;;;;;;5067187;28;45819;-70
2023/04/14 04:33:24;;;;;;;1.80;1.70;;;18.50;64.10;;;;;;5065403;28;44326;-70
2023/04/14 04:35:52;;;;;;;2.17;2.07;;;18.40;64.50;;;;;;5056791;28;43986;-70
2023/04/14 04:38:23;;;;;;;2.10;1.90;;;18.40;64.60;;;;;;5063436;28;43452;-71
2023/04/14 04:40:51;;;;;;;1.70;1.60;;;18.50;64.40;;;;;;5067754;28;45636;-70
2023/04/14 04:43:25;;;;;;;1.80;1.70;;;18.50;64.30;;;;;;5066124;28;44777;-69
2023/04/14 04:46:05;;;;;;;1.90;1.80;;;18.50;64.00;;;;;;5066671;28;43980;-70
2023/04/14 04:48:35;;;;;;;2.50;1.90;;;18.50;64.30;;;;;;5066802;28;43388;-71
2023/04/14 04:51:05;;;;;;;2.00;1.90;;;18.40;64.60;;;;;;5066153;28;45304;-70
2023/04/14 04:53:33;;;;;;;2.00;1.90;;;18.40;64.50;;;;;;5066533;28;45126;-70
2023/04/14 04:56:01;;;;;;;1.97;1.87;;;18.40;64.40;;;;;;5066756;28;44042;-70
2023/04/14 04:58:30;;;;;;;2.00;1.90;;;18.30;64.40;;;;;;5068277;28;44202;-70
2023/04/14 05:00:58;;;;;;;2.10;1.90;;;18.30;64.60;;;;;;5066472;28;45487;-70
2023/04/14 05:03:26;;;;;;;2.20;2.10;;;18.30;65.10;;;;;;5067937;28;43475;-70
2023/04/14 05:05:54;;;;;;;1.97;1.87;;;18.20;64.90;;;;;;5068336;28;43403;-70
2023/04/14 05:08:22;;;;;;;1.83;1.73;;;18.20;64.70;;;;;;5067797;28;43939;-70
2023/04/14 05:10:50;;;;;;;1.87;1.77;;;18.20;64.70;;;;;;5067664;28;43739;-70
2023/04/14 05:13:18;;;;;;;1.90;1.80;;;18.20;64.80;;;;;;5067964;28;43518;-70
2023/04/14 05:15:47;;;;;;;2.00;1.90;;;18.20;64.90;;;;;;5066487;28;43380;-70
2023/04/14 05:18:15;;;;;;;1.80;1.80;;;18.20;65.30;;;;;;5064246;28;43422;-70
2023/04/14 05:20:43;;;;;;;2.00;1.90;;;18.20;65.20;;;;;;5062996;28;43930;-70
2023/04/14 05:23:12;;;;;;;2.37;2.17;;;18.40;65.00;;;;;;5073183;28;43449;-70
2023/04/14 05:25:40;;;;;;;1.70;1.70;;;18.40;64.60;;;;;;5067981;28;43710;-70
2023/04/14 05:28:08;;;;;;;2.23;2.03;;;18.40;64.30;;;;;;5063651;28;43928;-70
2023/04/14 05:30:36;;;;;;;2.00;1.90;;;18.40;64.50;;;;;;5067227;28;43851;-69
2023/04/14 05:33:05;;;;;;;2.67;2.20;;;18.40;64.80;;;;;;5067498;28;43434;-70
2023/04/14 05:35:33;;;;;;;2.37;1.80;;;18.30;64.60;;;;;;5067318;28;43463;-71
2023/04/14 05:38:01;;;;;;;2.00;1.90;;;18.30;64.50;;;;;;5067640;28;43440;-71
2023/04/14 05:40:29;;;;;;;2.00;1.90;;;18.30;64.60;;;;;;5067714;28;43930;-70
2023/04/14 05:42:57;;;;;;;2.57;2.33;;;18.20;64.60;;;;;;5067839;28;44090;-70
2023/04/14 05:45:25;;;;;;;2.33;2.13;;;18.20;65.00;;;;;;5065890;28;43427;-70
2023/04/14 05:47:53;;;;;;;1.80;1.70;;;18.20;65.10;;;;;;5067917;28;43361;-70
2023/04/14 05:50:22;;;;;;;1.97;1.87;;;18.20;65.00;;;;;;5067360;28;43646;-69
2023/04/14 05:52:51;;;;;;;2.27;2.17;;;18.10;64.90;;;;;;5063866;28;43333;-71
2023/04/14 05:55:19;;;;;;;1.80;1.70;;;18.10;65.00;;;;;;5067609;28;43389;-71
2023/04/14 05:57:47;;;;;;;1.80;1.70;;;18.10;65.20;;;;;;5067604;28;43459;-71
2023/04/14 06:00:16;;;;;;;2.40;2.30;;;18.10;65.40;;;;;;5066529;28;44059;-71
2023/04/14 06:02:44;;;;;;;1.80;1.70;;;18.10;65.20;;;;;;5066791;28;43944;-71
2023/04/14 06:05:12;;;;;;;1.83;1.73;;;18.10;65.20;;;;;;5066724;28;43858;-71
2023/04/14 06:07:42;;;;;;;1.80;1.70;;;18.10;65.20;;;;;;5067761;28;43364;-71
2023/04/14 06:10:10;;;;;;;1.83;1.70;;;18.10;65.20;;;;;;5066927;28;43912;-70
2023/04/14 06:12:38;;;;;;;2.60;2.00;;;18.00;65.30;;;;;;5066845;28;43450;-70
2023/04/14 06:15:07;;;;;;;2.60;2.40;;;18.00;65.50;;;;;;5067086;28;43453;-71
2023/04/14 06:17:35;;;;;;;2.30;2.20;;;18.10;65.40;;;;;;5065741;28;43562;-70
2023/04/14 06:20:03;;;;;;;1.93;1.83;;;18.20;65.10;;;;;;5068875;28;44083;-71
2023/04/14 06:22:33;;;;;;;2.17;2.00;;;18.30;64.80;;;;;;5066150;28;43381;-71
2023/04/14 06:25:03;;;;;;;2.27;1.97;;;18.30;64.50;;;;;;5054527;28;43466;-70
2023/04/14 06:27:31;;;;;;;2.03;1.93;;;18.30;64.80;;;;;;5062818;28;45011;-71
2023/04/14 06:29:59;;;;;;;2.20;2.10;;;18.20;64.80;;;;;;5066551;28;43903;-70
2023/04/14 06:32:27;;;;;;;2.23;2.13;;;18.20;64.50;;;;;;5066750;28;44091;-70
2023/04/14 06:34:56;;;;;;;2.10;2.00;;;18.20;64.60;;;;;;5067269;28;43330;-71
2023/04/14 06:37:24;;;;;;;2.10;1.90;;;18.20;64.70;;;;;;5065578;28;43736;-70
2023/04/14 06:39:52;;;;;;;2.20;2.10;;;18.10;64.80;;;;;;5066119;28;43925;-70
2023/04/14 06:42:21;;;;;;;2.10;2.00;;;18.10;65.10;;;;;;5064687;28;44936;-71
2023/04/14 06:44:49;;;;;;;1.93;1.83;;;18.10;64.90;;;;;;5066530;28;43393;-70
2023/04/14 06:47:18;;;;;;;2.23;2.13;;;18.10;65.00;;;;;;5066532;28;43601;-70
2023/04/14 06:49:46;;;;;;;2.10;2.00;;;18.10;65.00;;;;;;5064791;28;46031;-70
2023/04/14 06:52:14;;;;;;;2.00;1.90;;;18.10;65.10;;;;;;5064831;28;44897;-70
2023/04/14 06:54:42;;;;;;;2.20;2.10;;;18.10;65.30;;;;;;5065553;28;43432;-71
2023/04/14 06:57:10;;;;;;;2.10;1.90;;;18.00;65.40;;;;;;5066582;28;43481;-70
2023/04/14 06:59:41;;;;;;;2.13;1.90;;;18.10;65.20;;;;;;5066023;28;43930;-70
2023/04/14 07:02:09;;;;;;;1.77;1.70;;;18.20;64.90;;;;;;5065618;28;43961;-71
2023/04/14 07:04:37;;;;;;;2.33;2.23;;;18.20;64.60;;;;;;5066523;28;43974;-70
2023/04/14 07:07:05;;;;;;;2.00;1.90;;;18.20;64.70;;;;;;5066386;28;43399;-71
2023/04/14 07:09:33;;;;;;;1.80;1.70;;;18.20;65.00;;;;;;5065562;28;43904;-71
2023/04/14 07:12:01;;;;;;;2.00;1.90;;;18.20;65.10;;;;;;5065888;28;43443;-71
2023/04/14 07:14:31;;;;;;;1.93;1.83;;;18.20;65.00;;;;;;5065999;28;45929;-70
2023/04/14 07:17:00;;;;;;;1.80;1.80;;;18.10;65.00;;;;;;5066689;28;43459;-70
2023/04/14 07:19:28;;;;;;;1.90;1.90;;;18.10;65.10;;;;;;5062490;28;43610;-70
2023/04/14 07:21:56;;;;;;;2.03;1.93;;;18.00;65.20;;;;;;5066198;28;44009;-70
2023/04/14 07:24:24;;;;;;;1.97;1.87;;;18.00;65.50;;;;;;5066107;28;43426;-70
2023/04/14 07:26:52;;;;;;;2.00;1.90;;;18.00;65.30;;;;;;5064198;28;43589;-71
2023/04/14 07:29:20;;;;;;;1.70;1.63;;;18.00;65.40;;;;;;5064134;28;43777;-71
2023/04/14 07:31:48;;;;;;;1.90;1.80;;;18.00;65.40;;;;;;5066137;28;43424;-71
2023/04/14 07:34:18;;;;;;;1.90;1.90;;;18.00;65.50;;;;;;5069584;28;43371;-70
2023/04/14 07:36:46;;;;;;;1.83;1.80;;;18.00;65.60;;;;;;5069909;28;43434;-70
2023/04/14 07:39:14;;;;;;;2.23;2.13;;;18.00;65.70;;;;;;5069243;28;43871;-70
2023/04/14 07:41:42;;;;;;;1.67;1.67;;;18.00;65.50;;;;;;5069188;28;43983;-70
2023/04/14 07:44:12;;;;;;;1.70;1.70;;;18.20;65.20;;;;;;5069478;28;43438;-70
2023/04/14 07:46:40;;;;;;;1.80;1.80;;;18.20;64.80;;;;;;5069530;28;43375;-71
2023/04/14 07:49:09;;;;;;;1.80;1.70;;;18.20;64.80;;;;;;5068892;28;43850;-70
2023/04/14 07:51:38;;;;;;;1.87;1.77;;;18.20;65.00;;;;;;5067575;28;43396;-70
2023/04/14 07:54:06;;;;;;;1.80;1.80;;;18.20;65.10;;;;;;5068456;28;43398;-70
2023/04/14 07:56:34;;;;;;;1.63;1.63;;;18.20;65.00;;;;;;5069615;28;43530;-71
2023/04/14 07:59:02;;;;;;;1.70;1.70;;;18.10;65.00;;;;;;5068616;28;43627;-70
2023/04/14 08:01:30;;;;;;;1.60;1.60;;;18.10;65.10;;;;;;5068909;28;43422;-71
2023/04/14 08:03:58;;;;;;;1.87;1.77;;;18.10;65.20;;;;;;5071766;28;43471;-70
2023/04/14 08:06:26;;;;;;;1.80;1.77;;;18.10;65.40;;;;;;5070529;27;43936;-70
2023/04/14 08:08:56;;;;;;;1.83;1.80;;;18.00;65.20;;;;;;5068589;28;44019;-70
2023/04/14 08:11:24;;;;;;;1.80;1.80;;;18.10;65.40;;;;;;5070372;28;45244;-70
2023/04/14 08:13:52;;;;;;;1.77;1.73;;;18.10;65.30;;;;;;5068807;28;43504;-70
2023/04/14 08:16:20;;;;;;;1.83;1.73;;;18.10;65.40;;;;;;5069755;28;43987;-70
2023/04/14 08:18:48;;;;;;;1.80;1.70;;;18.00;65.40;;;;;;5068139;28;43860;-70
2023/04/14 08:21:16;;;;;;;1.83;1.77;;;18.00;65.60;;;;;;5066824;28;45439;-71
2023/04/14 08:23:44;;;;;;;1.83;1.80;;;18.00;65.40;;;;;;5048112;28;43400;-70
2023/04/14 08:26:14;;;;;;;1.60;1.60;;;18.00;65.40;;;;;;5068722;28;43978;-70
2023/04/14 08:28:42;;;;;;;1.80;1.77;;;18.00;65.40;;;;;;5064832;28;44041;-71
2023/04/14 08:31:10;;;;;;;1.70;1.70;;;18.00;65.50;;;;;;5068674;28;44104;-70
2023/04/14 08:33:38;;;;;;;1.50;1.50;;;18.00;65.60;;;;;;5068573;28;43370;-70
2023/04/14 08:36:07;;;;;;;1.70;1.70;;;17.90;65.70;;;;;;5067229;28;43806;-71
2023/04/14 08:38:37;;;;;;;1.83;1.73;;;18.00;65.60;;;;;;5066332;28;43587;-70
2023/04/14 08:41:07;;;;;;;1.97;1.90;;;18.10;65.40;;;;;;5062099;28;43369;-70
2023/04/14 08:43:37;;;;;;;1.70;1.63;;;18.20;65.10;;;;;;5067654;28;43363;-71
2023/04/14 08:46:06;;;;;;;1.80;1.70;;;18.20;64.80;;;;;;5070096;28;43505;-71
2023/04/14 08:48:34;;;;;;;1.57;1.57;;;18.20;64.80;;;;;;5066807;28;45984;-71
2023/04/14 08:51:06;;;;;;;1.43;1.43;;;18.20;65.10;;;;;;5066105;28;45207;-71
2023/04/14 08:53:36;;;;;;;1.40;1.40;;;18.20;65.10;;;;;;5068701;28;43430;-71
2023/04/14 08:56:04;;;;;;;1.40;1.40;;;18.10;65.10;;;;;;5068630;28;43377;-70
2023/04/14 08:58:32;;;;;;;1.60;1.60;;;18.10;65.20;;;;;;5068089;28;43750;-71
2023/04/14 09:01:02;;;;;;;1.50;1.50;;;18.00;65.30;;;;;;5066579;28;43537;-71
2023/04/14 09:03:30;;;;;;;1.50;1.47;;;18.00;65.50;;;;;;5066889;28;43431;-71
2023/04/14 09:05:58;;;;;;;1.60;1.60;;;18.00;65.70;;;;;;5067152;28;43514;-71
2023/04/14 09:08:26;;;;;;;1.50;1.50;;;18.00;65.60;;;;;;5068449;28;43933;-70
2023/04/14 09:10:54;;;;;;;1.80;1.70;;;18.00;65.70;;;;;;5067718;28;43508;-71
2023/04/14 09:13:22;;;;;;;1.37;1.37;;;17.90;65.60;;;;;;5068218;28;43390;-70
2023/04/14 09:15:50;;;;;;;1.50;1.50;;;17.90;65.70;;;;;;5061654;28;44101;-70
2023/04/14 09:18:20;;;;;;;1.50;1.40;;;17.90;65.80;;;;;;5063767;28;43909;-70
2023/04/14 09:20:48;;;;;;;1.50;1.50;;;17.90;66.00;;;;;;5067436;28;43796;-70
2023/04/14 09:23:36;;;;;;;1.67;1.60;;;17.90;65.80;;;;;;5067599;28;43414;-71
2023/04/14 09:26:09;;;;;;;1.53;1.53;;;18.00;65.50;;;;;;5052024;28;43499;-70
2023/04/14 09:28:37;;;;;;;1.60;1.60;;;18.10;65.40;;;;;;5054140;28;45921;-70
2023/04/14 09:31:07;;;;;;;1.40;1.40;;;18.10;65.40;;;;;;5066990;28;43446;-71
2023/04/14 09:33:40;;;;;;;1.47;1.47;;;18.00;65.40;;;;;;5066098;28;43411;-71
2023/04/14 09:36:10;;;;;;;1.50;1.50;;;18.00;65.60;;;;;;5063120;28;43448;-70
2023/04/14 09:38:38;;;;;;;1.40;1.40;;;18.00;65.50;;;;;;5059671;28;45935;-71
2023/04/14 09:41:06;;;;;;;1.50;1.50;;;18.00;65.40;;;;;;5065852;28;43369;-71
2023/04/14 09:43:35;;;;;;;1.77;1.73;;;18.00;65.50;;;;;;5071476;28;43374;-71
2023/04/14 09:46:05;;;;;;;1.40;1.40;;;18.00;65.60;;;;;;5061828;28;43468;-71
2023/04/14 09:48:33;;;;;;;1.47;1.47;;;18.00;65.70;;;;;;5067459;28;43840;-71
2023/04/14 09:51:05;;;;;;;1.30;1.30;;;18.00;65.90;;;;;;5066927;28;43524;-71
2023/04/14 09:53:35;;;;;;;1.33;1.30;;;18.10;65.80;;;;;;5067963;28;43837;-70
2023/04/14 09:56:04;;;;;;;1.57;1.57;;;18.10;65.40;;;;;;5067666;28;43457;-71
2023/04/14 09:58:33;;;;;;;1.40;1.40;;;18.10;65.20;;;;;;5070088;28;45917;-71
2023/04/14 10:01:03;;;;;;;1.30;1.30;;;18.10;65.20;;;;;;5067135;28;43562;-71
2023/04/14 10:03:36;;;;;;;1.67;1.60;;;18.10;65.30;;;;;;5071348;28;43750;-71
2023/04/14 10:06:09;;;;;;;1.30;1.30;;;18.10;65.40;;;;;;5066066;28;44006;-71
2023/04/14 10:08:38;;;;;;;1.50;1.50;;;18.10;65.40;;;;;;5067214;28;43898;-71
2023/04/14 10:11:19;;;;;;;1.40;1.40;;;18.10;65.50;;;;;;5070720;28;43456;-71
2023/04/14 10:13:47;;;;;;;1.30;1.30;;;18.10;65.60;;;;;;5067054;28;43983;-71
2023/04/14 10:16:15;;;;;;;1.43;1.43;;;18.00;65.60;;;;;;5067320;28;43476;-70
2023/04/14 10:18:43;;;;;;;1.60;1.60;;;18.00;65.70;;;;;;5051188;28;43831;-70
2023/04/14 10:21:13;;;;;;;1.20;1.20;;;18.00;65.70;;;;;;5067027;28;43442;-70
2023/04/14 10:23:41;;;;;;;1.60;1.60;;;18.00;66.50;;;;;;5066819;28;43359;-70
2023/04/14 10:26:10;;;;;;;1.30;1.30;;;18.00;65.80;;;;;;5067138;28;43462;-71
2023/04/14 10:28:39;;;;;;;1.50;1.50;;;18.00;65.90;;;;;;5062670;28;43677;-71
2023/04/14 10:31:11;;;;;;;1.53;1.53;;;18.00;65.90;;;;;;5066592;28;43336;-71
2023/04/14 10:33:41;;;;;;;1.50;1.50;;;18.00;65.90;;;;;;5061525;28;43405;-71
2023/04/14 10:36:09;;;;;;;1.27;1.27;;;18.00;65.90;;;;;;5065774;28;43404;-71
2023/04/14 10:38:39;;;;;;;1.20;1.20;;;18.00;65.90;;;;;;5060582;28;44308;-71
2023/04/14 10:41:07;;;;;;;1.10;1.10;;;18.00;65.90;;;;;;5066293;28;44135;-71
2023/04/14 10:43:36;;;;;;;1.30;1.30;;;17.90;66.00;;;;;;5066758;28;43295;-71
2023/04/14 10:46:05;;;;;;;1.40;1.40;;;17.90;66.10;;;;;;5065224;28;44006;-71
2023/04/14 10:48:33;;;;;;;1.13;1.13;;;18.00;66.10;;;;;;5065977;28;45053;-70
2023/04/14 10:51:02;;;;;;;1.40;1.40;;;18.10;65.80;;;;;;5066255;28;43350;-70
2023/04/14 10:53:44;;;;;;;1.30;1.30;;;18.10;65.40;;;;;;5064629;28;44204;-71
2023/04/14 10:56:12;;;;;;;1.27;1.27;;;18.20;65.10;;;;;;5063103;28;43983;-71
2023/04/14 10:58:40;;;;;;;1.20;1.20;;;18.20;65.10;;;;;;5064175;28;45313;-70
2023/04/14 11:01:25;;;;;;;1.27;1.27;;;18.10;65.20;;;;;;5067324;28;43809;-71
2023/04/14 11:03:53;;;;;;;1.53;1.43;;;18.20;65.30;;;;;;5065908;28;44039;-69
2023/04/14 11:06:50;;;;;;;1.30;1.30;;;18.10;65.20;;;;;;5066474;28;43528;-70
2023/04/14 11:09:33;;;;;;;1.07;1.07;;;18.10;65.40;;;;;;5064289;28;43762;-70
2023/04/14 11:12:05;;;;;;;1.30;1.30;;;18.10;65.50;;;;;;5066059;28;43459;-70
2023/04/14 11:14:34;;;;;;;1.30;1.30;;;18.00;65.60;;;;;;5057540;28;43417;-71
2023/04/14 11:17:03;;;;;;;1.20;1.20;;;18.00;65.70;;;;;;5066586;28;43376;-70
2023/04/14 11:19:32;;;;;;;1.10;1.10;;;18.00;65.60;;;;;;5062250;28;43868;-71
2023/04/14 11:22:00;;;;;;;1.10;1.10;;;18.00;65.60;;;;;;5065523;28;43547;-71
2023/04/14 11:24:31;;;;;;;1.10;1.10;;;18.00;65.70;;;;;;5065898;28;43503;-71
2023/04/14 11:27:02;;;;;;;1.40;1.40;;;18.00;65.80;;;;;;5066315;28;43435;-71
2023/04/14 11:29:30;;;;;;;1.13;1.13;;;17.90;65.80;;;;;;5065929;28;43948;-71
2023/04/14 11:32:02;;;;;;;1.20;1.20;;;17.90;65.90;;;;;;5051428;28;44940;-71
2023/04/14 11:34:33;;;;;;;1.10;1.10;;;18.00;65.90;;;;;;5060544;28;43409;-71
2023/04/14 11:37:04;;;;;;;1.07;1.07;;;18.00;65.90;;;;;;5057945;28;43701;-70
2023/04/14 11:39:34;;;;;;;1.30;1.30;;;17.90;65.80;;;;;;5055682;28;43857;-71
2023/04/14 11:42:04;;;;;;;1.00;1.00;;;17.90;65.90;;;;;;5057916;28;43438;-71
2023/04/14 11:44:32;;;;;;;1.10;1.10;;;17.90;66.10;;;;;;5058691;28;43401;-71
2023/04/14 11:47:00;;;;;;;1.20;1.20;;;17.90;66.10;;;;;;5060283;28;43360;-71
2023/04/14 11:49:35;;;;;;;1.10;1.10;;;18.00;65.90;;;;;;5056734;28;43752;-71
2023/04/14 11:52:07;;;;;;;1.10;1.10;;;18.10;65.60;;;;;;5058695;28;44010;-70
2023/04/14 11:54:36;;;;;;;1.17;1.17;;;18.20;65.20;;;;;;5057604;28;43402;-71
2023/04/14 11:57:10;;;;;;;1.10;1.10;;;18.20;65.90;;;;;;5060834;28;43454;-71
2023/04/14 11:59:42;;;;;;;1.20;1.20;;;18.20;65.30;;;;;;5057890;28;43694;-70
2023/04/14 12:02:15;;;;;;;1.17;1.17;;;18.10;65.40;;;;;;5056634;28;43942;-70
2023/04/14 12:04:44;;;;;;;1.10;1.10;;;18.10;65.40;;;;;;5057038;28;43451;-70
2023/04/14 12:07:13;;;;;;;1.27;1.27;;;18.10;65.50;;;;;;5057362;28;43421;-70
2023/04/14 12:09:43;;;;;;;1.20;1.20;;;18.00;65.60;;;;;;5057933;28;43869;-70
2023/04/14 12:12:13;;;;;;;1.13;1.13;;;18.00;65.70;;;;;;5057378;28;43455;-70
2023/04/14 12:14:44;;;;;;;1.10;1.10;;;18.00;66.70;;;;;;5056929;28;43364;-70
2023/04/14 12:17:12;;;;;;;1.20;1.20;;;18.00;65.90;;;;;;5057505;28;44047;-70
2023/04/14 12:19:41;;;;;;;0.90;0.90;;;17.90;65.80;;;;;;5060386;28;43677;-71
2023/04/14 12:22:09;;;;;;;1.00;1.00;;;17.90;65.90;;;;;;5059597;28;43448;-70
2023/04/14 12:24:37;;;;;;;1.00;1.00;;;17.90;66.00;;;;;;5058687;28;43692;-71
2023/04/14 12:27:05;;;;;;;1.30;1.30;;;17.90;66.10;;;;;;5062149;28;44540;-71
2023/04/14 12:29:35;;;;;;;1.00;1.00;;;17.90;66.10;;;;;;5061647;28;43825;-71
2023/04/14 12:32:05;;;;;;;1.10;1.10;;;17.90;66.10;;;;;;5077780;27;44055;-71
2023/04/14 12:34:33;;;;;;;1.10;1.10;;;17.90;66.10;;;;;;5068073;28;43445;-70
2023/04/14 12:37:06;;;;;;;1.20;1.20;;;17.90;66.10;;;;;;5067300;28;43636;-71
2023/04/14 12:39:49;;;;;;;1.00;1.00;;;17.90;66.10;;;;;;5066840;28;45679;-70
2023/04/14 12:42:19;;;;;;;1.30;1.30;;;17.90;66.20;;;;;;5068214;28;44032;-71
2023/04/14 12:44:59;;;;;;;1.10;1.10;;;17.90;66.30;;;;;;5068499;28;43903;-71
2023/04/14 12:47:31;;;;;;;1.20;1.20;;;17.90;66.10;;;;;;5068447;28;43463;-71
2023/04/14 12:50:02;;;;;;;1.37;1.37;;;18.00;65.80;;;;;;5068414;28;43838;-70
2023/04/14 12:52:36;;;;;;;1.53;1.30;;;18.10;65.40;;;;;;5065996;28;43490;-71
2023/04/14 12:55:05;;;;;;;3.37;1.30;;;18.10;65.30;;;;;;5060853;28;43959;-71
2023/04/14 12:57:33;;;;;;;1.13;1.13;;;18.00;65.00;;;;;;5068543;28;43404;-71
2023/04/14 13:00:04;;;;;;;1.20;1.20;;;18.00;65.20;;;;;;5070020;28;43661;-71